INFORMACIÓN METAR y TAF
METAR FOR GCHI
ADDS - METARS form results

(0307 UTC 10 December 2019)
Data provider http://aviationweather.gov/metar/data/
 
METAR text: GCHI 100300Z AUTO 05014KT CAVOK 19/14 Q1026
Conditions at: GCHI (HIERRO AIRPORT , ES) observed 0300 UTC 10 December 2019
Temperature: 19.0°C (66°F)
Dewpoint: 14.0°C (57°F) [RH = 73%]
Pressure (altimeter): 30.30 inches Hg (1026.0 mb)
Winds: from the NE (50 degrees) at 16 MPH (14 knots; 7.2 m/s)
Visibility: 6 or more miles (10+ km)
Ceiling: ceiling and visibility are OK
Clouds: unknown
Weather: no significant weather observed at this time

METAR text: GCHI 100230Z AUTO 05014KT 9999 FEW037 19/14 Q1027
Conditions at: GCHI (HIERRO AIRPORT , ES) observed 0230 UTC 10 December 2019
Temperature: 19.0°C (66°F)
Dewpoint: 14.0°C (57°F) [RH = 73%]
Pressure (altimeter): 30.32 inches Hg (1027.0 mb)
Winds: from the NE (50 degrees) at 16 MPH (14 knots; 7.2 m/s)
Visibility: 6 or more miles (10+ km)
Ceiling: at least 12,000 feet AGL
Clouds: few clouds at 3700 feet AGL
Weather: no significant weather observed at this time

Forecast for: GCHI (HIERRO AIRPORT , ES)
Text: TAF GCHI 100200Z 1003/1103 04015KT 9999 SCT030 TX22/1014Z TN19/1006Z
Forecast period: 0300 UTC 10 December 2019 to 0300 UTC 11 December 2019
Forecast type: FROM: standard forecast or significant change
Winds: from the NE (40 degrees) at 17 MPH (15 knots; 7.7 m/s)
Visibility: 6 or more miles 10+ km)
Ceiling: at least 12,000 feet AGL
Clouds: scattered clouds at 3000 feet AGL
Weather: no significant weather forecast for this period

MAPA DE AEROPUERTO

INFORMACIÓN DE PISTA
Pista 16 Longitud 4101 ft Ancho 98 ft
Elevación 71 ft Umbral desplazado 0 ft Rumbo de pista 153
Pista 34 Longitud 4101 ft Ancho 98 ft
Elevación 103 ft Umbral desplazado 0 ft Rumbo de pista 333

FRECUANCIAS DEL AEROPUERTO
Tipo A/D Nombre CANARIAS A Frecuencia 126.1 MHZ
Tipo GND Nombre GND Frecuencia 121.6 MHZ
Tipo TWR Nombre TWR Frecuencia 118.1 MHZ

RADIO AYUDAS DEL AEROPUERTO
Tipo NDB Nombre Hierro Frecuencia 376 KHZ
Tipo DME Nombre Hierro Frecuencia 113200 KHZ